createdAt,value
2017-03-12T00:00:02.843Z,1010.28
2017-03-12T00:01:02.826Z,1010.28
2017-03-12T00:02:02.807Z,1010.28
2017-03-12T00:03:02.841Z,1010.22
2017-03-12T00:04:02.770Z,1010.27
2017-03-12T00:05:02.754Z,1010.19
2017-03-12T00:06:02.741Z,1010.21
2017-03-12T00:07:02.719Z,1010.19
2017-03-12T00:08:02.699Z,1010.15
2017-03-12T00:09:02.680Z,1010.14
2017-03-12T00:10:02.661Z,1010.16
2017-03-12T00:11:02.644Z,1010.16
2017-03-12T00:12:02.626Z,1010.13
2017-03-12T00:13:02.609Z,1010.13
2017-03-12T00:14:02.600Z,1010.09
2017-03-12T00:15:02.570Z,1010.08
2017-03-12T00:16:02.555Z,1010.1
2017-03-12T00:17:02.535Z,1010.1
2017-03-12T00:18:02.518Z,1010.11
2017-03-12T00:19:02.496Z,1010.09
2017-03-12T00:20:02.488Z,1010.09
2017-03-12T00:21:02.461Z,1010.06
2017-03-12T00:22:02.456Z,1010.07
2017-03-12T00:23:02.424Z,1010.07
2017-03-12T00:24:02.409Z,1010.08
2017-03-12T00:25:02.387Z,1010.08
2017-03-12T00:26:02.397Z,1010.06
2017-03-12T00:27:02.353Z,1010.07
2017-03-12T00:28:02.332Z,1010.04
2017-03-12T00:29:02.314Z,1010.06
2017-03-12T00:30:02.297Z,1010.05
2017-03-12T00:31:02.277Z,1010.06
2017-03-12T00:32:02.258Z,1010.04
2017-03-12T00:33:02.239Z,1010.04
2017-03-12T00:34:02.221Z,1010.04
2017-03-12T00:35:02.222Z,1010
2017-03-12T00:36:02.200Z,1010.04
2017-03-12T00:37:02.174Z,1010.02
2017-03-12T00:38:02.159Z,1009.98
2017-03-12T00:39:02.130Z,1009.97
2017-03-12T00:40:02.130Z,1009.97
2017-03-12T00:41:02.093Z,1009.96
2017-03-12T00:42:02.085Z,1009.99
2017-03-12T00:43:02.071Z,1009.98
2017-03-12T00:44:02.046Z,1009.97
2017-03-12T00:45:02.020Z,1010
2017-03-12T00:46:02.001Z,1009.95
2017-03-12T00:47:01.980Z,1009.93
2017-03-12T00:48:01.964Z,1009.92
2017-03-12T00:49:01.944Z,1009.93
2017-03-12T00:50:01.925Z,1009.89
2017-03-12T00:51:01.908Z,1009.86
2017-03-12T00:52:01.890Z,1009.86
2017-03-12T00:53:01.872Z,1009.86
2017-03-12T00:54:01.853Z,1009.83
2017-03-12T00:55:01.832Z,1009.84
2017-03-12T00:56:01.814Z,1009.81
2017-03-12T00:57:01.799Z,1009.78
2017-03-12T00:58:01.781Z,1009.78
2017-03-12T00:59:01.760Z,1009.79
2017-03-12T01:00:01.740Z,1009.79
2017-03-12T01:01:01.724Z,1009.8
2017-03-12T01:02:01.704Z,1009.78
2017-03-12T01:03:01.687Z,1009.76
2017-03-12T01:04:01.666Z,1009.74
2017-03-12T01:05:01.676Z,1009.73
2017-03-12T01:06:01.635Z,1009.72
2017-03-12T01:07:01.667Z,1009.72
2017-03-12T01:08:01.798Z,1009.75
2017-03-12T01:09:01.578Z,1009.76
2017-03-12T01:10:01.555Z,1009.73
2017-03-12T01:11:01.538Z,1009.71
2017-03-12T01:12:01.583Z,1009.71
2017-03-12T01:13:01.497Z,1009.72
2017-03-12T01:14:01.479Z,1009.68
2017-03-12T01:15:01.462Z,1009.72
2017-03-12T01:16:01.445Z,1009.7
2017-03-12T01:17:01.427Z,1009.7
2017-03-12T01:18:01.406Z,1009.69
2017-03-12T01:19:01.387Z,1009.67
2017-03-12T01:20:01.369Z,1009.68
2017-03-12T01:21:01.350Z,1009.66
2017-03-12T01:22:01.331Z,1009.6
2017-03-12T01:23:01.315Z,1009.66
2017-03-12T01:24:01.291Z,1009.62
2017-03-12T01:25:01.276Z,1009.63
2017-03-12T01:26:01.255Z,1009.62
2017-03-12T01:27:01.237Z,1009.61
2017-03-12T01:28:01.219Z,1009.6
2017-03-12T01:29:01.201Z,1009.62
2017-03-12T01:30:01.182Z,1009.59
2017-03-12T01:31:01.164Z,1009.6
2017-03-12T01:32:01.142Z,1009.62
2017-03-12T01:33:01.126Z,1009.55
2017-03-12T01:34:01.107Z,1009.57
2017-03-12T01:35:01.088Z,1009.52
2017-03-12T01:36:01.068Z,1009.56
2017-03-12T01:37:01.053Z,1009.53
2017-03-12T01:38:01.032Z,1009.54
2017-03-12T01:39:01.013Z,1009.54
2017-03-12T01:40:00.996Z,1009.52
2017-03-12T01:41:00.979Z,1009.53
2017-03-12T01:42:00.957Z,1009.46
2017-03-12T01:43:00.936Z,1009.48
2017-03-12T01:44:00.918Z,1009.48
2017-03-12T01:45:00.901Z,1009.49
2017-03-12T01:46:00.882Z,1009.48
2017-03-12T01:47:00.863Z,1009.48
2017-03-12T01:48:00.845Z,1009.47
2017-03-12T01:49:00.824Z,1009.53
2017-03-12T01:50:00.805Z,1009.48
2017-03-12T01:51:00.786Z,1009.42
2017-03-12T01:52:00.768Z,1009.49
2017-03-12T01:53:00.750Z,1009.46
2017-03-12T01:54:00.732Z,1009.44
2017-03-12T01:55:00.713Z,1009.48
2017-03-12T01:56:00.694Z,1009.45
2017-03-12T01:57:00.674Z,1009.45
2017-03-12T01:58:00.655Z,1009.44
2017-03-12T01:59:00.637Z,1009.44
2017-03-12T02:00:00.618Z,1009.42
2017-03-12T02:01:00.598Z,1009.51
2017-03-12T02:02:00.579Z,1009.44
2017-03-12T02:03:00.562Z,1009.44
2017-03-12T02:04:00.544Z,1009.42
2017-03-12T02:05:00.523Z,1009.44
2017-03-12T02:06:00.506Z,1009.44
2017-03-12T02:07:00.493Z,1009.46
2017-03-12T02:08:00.466Z,1009.42
2017-03-12T02:09:00.451Z,1009.41
2017-03-12T02:10:00.433Z,1009.38
2017-03-12T02:11:00.411Z,1009.4
2017-03-12T02:12:00.394Z,1009.42
2017-03-12T02:13:00.380Z,1009.41
2017-03-12T02:14:00.356Z,1009.45
2017-03-12T02:15:00.360Z,1009.45
2017-03-12T02:16:00.318Z,1009.42
2017-03-12T02:17:00.298Z,1009.43
2017-03-12T02:18:00.280Z,1009.4
2017-03-12T02:19:00.259Z,1009.34
2017-03-12T02:20:00.246Z,1009.38
2017-03-12T02:21:00.221Z,1009.39
2017-03-12T02:22:00.203Z,1009.37
2017-03-12T02:23:00.184Z,1009.32
2017-03-12T02:24:00.169Z,1009.3
2017-03-12T02:25:00.148Z,1009.3
2017-03-12T02:26:00.129Z,1009.3
2017-03-12T02:27:00.112Z,1009.28
2017-03-12T02:28:00.092Z,1009.25
2017-03-12T02:29:00.075Z,1009.29
2017-03-12T02:30:00.054Z,1009.29
2017-03-12T02:31:00.037Z,1009.31
2017-03-12T02:32:00.018Z,1009.31
2017-03-12T02:32:59.998Z,1009.3
2017-03-12T02:33:59.983Z,1009.29
2017-03-12T02:34:59.965Z,1009.31
2017-03-12T02:35:59.941Z,1009.32
2017-03-12T02:36:59.920Z,1009.3
2017-03-12T02:37:59.906Z,1009.28
2017-03-12T02:38:59.885Z,1009.31
2017-03-12T02:39:59.867Z,1009.32
2017-03-12T02:40:59.845Z,1009.28
2017-03-12T02:41:59.827Z,1009.33
2017-03-12T02:42:59.812Z,1009.33
2017-03-12T02:43:59.793Z,1009.29
2017-03-12T02:44:59.771Z,1009.31
2017-03-12T02:45:59.753Z,1009.33
2017-03-12T02:46:59.734Z,1009.34
2017-03-12T02:47:59.713Z,1009.34
2017-03-12T02:48:59.696Z,1009.31
2017-03-12T02:49:59.677Z,1009.32
2017-03-12T02:50:59.658Z,1009.34
2017-03-12T02:51:59.640Z,1009.31
2017-03-12T02:52:59.620Z,1009.36
2017-03-12T02:53:59.602Z,1009.3
2017-03-12T02:54:59.583Z,1009.31
2017-03-12T02:55:59.561Z,1009.31
2017-03-12T02:56:59.544Z,1009.29
2017-03-12T02:57:59.527Z,1009.32
2017-03-12T02:58:59.507Z,1009.29
2017-03-12T02:59:59.487Z,1009.29
2017-03-12T03:00:59.468Z,1009.32
2017-03-12T03:01:59.448Z,1009.32
2017-03-12T03:02:59.429Z,1009.31
2017-03-12T03:03:59.411Z,1009.32
2017-03-12T03:04:59.390Z,1009.3
2017-03-12T03:05:59.371Z,1009.34
2017-03-12T03:06:59.354Z,1009.33
2017-03-12T03:07:59.537Z,1009.33
2017-03-12T03:08:59.315Z,1009.28
2017-03-12T03:09:59.296Z,1009.33
2017-03-12T03:10:59.276Z,1009.31
2017-03-12T03:11:59.257Z,1009.3
2017-03-12T03:12:59.287Z,1009.35
2017-03-12T03:13:59.219Z,1009.31
2017-03-12T03:14:59.198Z,1009.28
2017-03-12T03:15:59.180Z,1009.32
2017-03-12T03:16:59.161Z,1009.33
2017-03-12T03:17:59.142Z,1009.33
2017-03-12T03:18:59.123Z,1009.3
2017-03-12T03:19:59.103Z,1009.3
2017-03-12T03:20:59.081Z,1009.35
2017-03-12T03:21:59.070Z,1009.32
2017-03-12T03:22:59.045Z,1009.29
2017-03-12T03:23:59.026Z,1009.32
2017-03-12T03:24:59.004Z,1009.3
2017-03-12T03:25:58.986Z,1009.3
2017-03-12T03:26:58.970Z,1009.31
2017-03-12T03:27:58.950Z,1009.29
2017-03-12T03:28:58.927Z,1009.34
2017-03-12T03:29:58.909Z,1009.32
2017-03-12T03:30:58.889Z,1009.3
2017-03-12T03:31:58.869Z,1009.26
2017-03-12T03:32:58.849Z,1009.29
2017-03-12T03:33:58.830Z,1009.29
2017-03-12T03:34:58.811Z,1009.28
2017-03-12T03:35:58.792Z,1009.29
2017-03-12T03:36:58.773Z,1009.29
2017-03-12T03:37:58.754Z,1009.3
2017-03-12T03:38:58.732Z,1009.24
2017-03-12T03:39:58.716Z,1009.27
2017-03-12T03:40:58.694Z,1009.22
2017-03-12T03:41:58.675Z,1009.25
2017-03-12T03:42:58.657Z,1009.21
2017-03-12T03:43:58.636Z,1009.21
2017-03-12T03:44:58.616Z,1009.21
2017-03-12T03:45:58.596Z,1009.23
2017-03-12T03:46:58.577Z,1009.18
2017-03-12T03:47:58.564Z,1009.2
2017-03-12T03:48:58.538Z,1009.19
2017-03-12T03:49:58.519Z,1009.2
2017-03-12T03:50:58.499Z,1009.19
2017-03-12T03:51:58.479Z,1009.24
2017-03-12T03:52:58.467Z,1009.19
2017-03-12T03:53:58.439Z,1009.19
2017-03-12T03:54:58.471Z,1009.2
2017-03-12T03:55:58.404Z,1009.17
2017-03-12T03:56:58.382Z,1009.22
2017-03-12T03:57:58.362Z,1009.18
2017-03-12T03:58:58.343Z,1009.19
2017-03-12T03:59:58.323Z,1009.18
2017-03-12T04:00:58.305Z,1009.16
2017-03-12T04:01:58.284Z,1009.15
2017-03-12T04:02:58.263Z,1009.14
2017-03-12T04:03:58.246Z,1009.15
2017-03-12T04:04:58.224Z,1009.16
2017-03-12T04:05:58.204Z,1009.13
2017-03-12T04:06:58.185Z,1009.11
2017-03-12T04:07:58.166Z,1009.1
2017-03-12T04:08:58.144Z,1009.12
2017-03-12T04:09:58.132Z,1009.11
2017-03-12T04:10:58.108Z,1009.13
2017-03-12T04:11:58.091Z,1009.11
2017-03-12T04:12:58.068Z,1009.08
2017-03-12T04:13:58.048Z,1009.1
2017-03-12T04:14:58.027Z,1009.09
2017-03-12T04:15:58.008Z,1009.09
2017-03-12T04:16:57.990Z,1009.1
2017-03-12T04:17:57.968Z,1009.09
2017-03-12T04:18:57.949Z,1009.1
2017-03-12T04:19:57.934Z,1009.12
2017-03-12T04:20:57.912Z,1009.12
2017-03-12T04:21:57.941Z,1009.09
2017-03-12T04:22:57.867Z,1009.1
2017-03-12T04:23:57.849Z,1009.08
2017-03-12T04:24:57.828Z,1009.11
2017-03-12T04:25:57.808Z,1009.09
2017-03-12T04:26:57.786Z,1009.08
2017-03-12T04:27:57.768Z,1009.05
2017-03-12T04:28:57.751Z,1009.04
2017-03-12T04:29:57.728Z,1009.04
2017-03-12T04:30:57.710Z,1009.03
2017-03-12T04:31:57.689Z,1009.03
2017-03-12T04:32:57.670Z,1009.03
2017-03-12T04:33:57.649Z,1009
2017-03-12T04:34:57.628Z,1009.01
2017-03-12T04:35:57.608Z,1009.01
2017-03-12T04:36:57.589Z,1008.97
2017-03-12T04:37:57.568Z,1008.97
2017-03-12T04:38:57.548Z,1008.95
2017-03-12T04:39:57.528Z,1008.98
2017-03-12T04:40:57.511Z,1008.91
2017-03-12T04:41:57.488Z,1008.94
2017-03-12T04:42:57.469Z,1008.94
2017-03-12T04:43:57.449Z,1008.91
2017-03-12T04:44:57.428Z,1008.92
2017-03-12T04:45:57.407Z,1008.91
2017-03-12T04:46:57.388Z,1008.93
2017-03-12T04:47:57.367Z,1008.9
2017-03-12T04:48:57.347Z,1008.91
2017-03-12T04:49:57.327Z,1008.89
2017-03-12T04:50:57.307Z,1008.89
2017-03-12T04:51:57.288Z,1008.85
2017-03-12T04:52:57.266Z,1008.86
2017-03-12T04:53:57.250Z,1008.84
2017-03-12T04:54:57.229Z,1008.83
2017-03-12T04:55:57.207Z,1008.81
2017-03-12T04:56:57.186Z,1008.79
2017-03-12T04:57:57.168Z,1008.81
2017-03-12T04:58:57.148Z,1008.84
2017-03-12T04:59:57.126Z,1008.79
2017-03-12T05:00:57.105Z,1008.8
2017-03-12T05:01:57.086Z,1008.78
2017-03-12T05:02:57.134Z,1008.81
2017-03-12T05:03:57.046Z,1008.78
2017-03-12T05:04:57.024Z,1008.79
2017-03-12T05:05:57.005Z,1008.79
2017-03-12T05:06:56.984Z,1008.79
2017-03-12T05:07:57.167Z,1008.78
2017-03-12T05:08:56.944Z,1008.77
2017-03-12T05:09:56.925Z,1008.75
2017-03-12T05:10:56.904Z,1008.72
2017-03-12T05:11:56.883Z,1008.71
2017-03-12T05:12:56.866Z,1008.71
2017-03-12T05:13:56.844Z,1008.74
2017-03-12T05:14:56.824Z,1008.77
2017-03-12T05:15:56.802Z,1008.73
2017-03-12T05:16:56.786Z,1008.72
2017-03-12T05:17:56.762Z,1008.73
2017-03-12T05:18:56.742Z,1008.73
2017-03-12T05:19:56.722Z,1008.73
2017-03-12T05:20:56.703Z,1008.75
2017-03-12T05:21:56.683Z,1008.73
2017-03-12T05:22:56.661Z,1008.7
2017-03-12T05:23:56.640Z,1008.71
2017-03-12T05:24:56.621Z,1008.73
2017-03-12T05:25:56.601Z,1008.73
2017-03-12T05:26:56.579Z,1008.73
2017-03-12T05:27:56.560Z,1008.69
2017-03-12T05:28:56.539Z,1008.68
2017-03-12T05:29:56.518Z,1008.69
2017-03-12T05:30:56.499Z,1008.66
2017-03-12T05:31:56.479Z,1008.67
2017-03-12T05:32:56.458Z,1008.67
2017-03-12T05:33:56.439Z,1008.65
2017-03-12T05:34:56.418Z,1008.69
2017-03-12T05:35:56.426Z,1008.68
2017-03-12T05:36:56.377Z,1008.65
2017-03-12T05:37:56.362Z,1008.66
2017-03-12T05:38:56.337Z,1008.65
2017-03-12T05:39:56.316Z,1008.66
2017-03-12T05:40:56.344Z,1008.66
2017-03-12T05:41:56.277Z,1008.65
2017-03-12T05:42:56.257Z,1008.63
2017-03-12T05:43:56.235Z,1008.62
2017-03-12T05:44:56.213Z,1008.61
2017-03-12T05:45:56.196Z,1008.66
2017-03-12T05:46:56.173Z,1008.6
2017-03-12T05:47:56.152Z,1008.66
2017-03-12T05:48:56.134Z,1008.64
2017-03-12T05:49:56.164Z,1008.63
2017-03-12T05:50:56.091Z,1008.59
2017-03-12T05:51:56.070Z,1008.64
2017-03-12T05:52:56.049Z,1008.66
2017-03-12T05:53:56.033Z,1008.61
2017-03-12T05:54:56.010Z,1008.59
2017-03-12T05:55:56.040Z,1008.63
2017-03-12T05:56:55.969Z,1008.65
2017-03-12T05:57:55.953Z,1008.62
2017-03-12T05:58:55.944Z,1008.64
2017-03-12T05:59:55.908Z,1008.61
2017-03-12T06:00:55.889Z,1008.63
2017-03-12T06:01:55.866Z,1008.6
2017-03-12T06:02:55.847Z,1008.63
2017-03-12T06:03:55.829Z,1008.61
2017-03-12T06:04:55.805Z,1008.59
2017-03-12T06:05:55.785Z,1008.58
2017-03-12T06:06:55.765Z,1008.58
2017-03-12T06:07:55.745Z,1008.59
2017-03-12T06:08:55.724Z,1008.63
2017-03-12T06:09:55.704Z,1008.63
2017-03-12T06:10:55.686Z,1008.59
2017-03-12T06:11:55.663Z,1008.6
2017-03-12T06:12:55.641Z,1008.58
2017-03-12T06:13:55.622Z,1008.61
2017-03-12T06:14:55.602Z,1008.56
2017-03-12T06:15:55.580Z,1008.56
2017-03-12T06:16:55.562Z,1008.56
2017-03-12T06:17:55.542Z,1008.54
2017-03-12T06:18:55.522Z,1008.54
2017-03-12T06:19:55.500Z,1008.54
2017-03-12T06:20:55.481Z,1008.58
2017-03-12T06:21:55.460Z,1008.57
2017-03-12T06:22:55.438Z,1008.55
2017-03-12T06:23:55.424Z,1008.55
2017-03-12T06:24:55.400Z,1008.6
2017-03-12T06:25:55.377Z,1008.57
2017-03-12T06:26:55.358Z,1008.58
2017-03-12T06:27:55.336Z,1008.62
2017-03-12T06:28:55.317Z,1008.6
2017-03-12T06:29:55.296Z,1008.63
2017-03-12T06:30:55.330Z,1008.64
2017-03-12T06:31:55.257Z,1008.6
2017-03-12T06:32:55.237Z,1008.67
2017-03-12T06:33:55.216Z,1008.7
2017-03-12T06:34:55.196Z,1008.69
2017-03-12T06:35:55.177Z,1008.68
2017-03-12T06:36:55.156Z,1008.69
2017-03-12T06:37:55.137Z,1008.68
2017-03-12T06:38:55.116Z,1008.66
2017-03-12T06:39:55.096Z,1008.68
2017-03-12T06:40:55.075Z,1008.69
2017-03-12T06:41:55.055Z,1008.68
2017-03-12T06:42:55.036Z,1008.66
2017-03-12T06:43:55.014Z,1008.64
2017-03-12T06:44:54.994Z,1008.66
2017-03-12T06:45:54.975Z,1008.63
2017-03-12T06:46:54.956Z,1008.66
2017-03-12T06:47:54.935Z,1008.62
2017-03-12T06:48:54.916Z,1008.68
2017-03-12T06:49:54.895Z,1008.69
2017-03-12T06:50:54.875Z,1008.7
2017-03-12T06:51:54.855Z,1008.73
2017-03-12T06:52:54.835Z,1008.71
2017-03-12T06:53:54.816Z,1008.7
2017-03-12T06:54:54.796Z,1008.75
2017-03-12T06:55:54.777Z,1008.72
2017-03-12T06:56:54.755Z,1008.72
2017-03-12T06:57:54.737Z,1008.67
2017-03-12T06:58:54.718Z,1008.69
2017-03-12T06:59:54.698Z,1008.68
2017-03-12T07:00:54.683Z,1008.66
2017-03-12T07:01:54.659Z,1008.69
2017-03-12T07:02:54.639Z,1008.68
2017-03-12T07:03:54.625Z,1008.65
2017-03-12T07:04:54.601Z,1008.66
2017-03-12T07:05:54.580Z,1008.68
2017-03-12T07:06:54.565Z,1008.66
2017-03-12T07:07:54.743Z,1008.67
2017-03-12T07:08:54.520Z,1008.68
2017-03-12T07:09:54.503Z,1008.68
2017-03-12T07:10:54.484Z,1008.63
2017-03-12T07:11:54.463Z,1008.66
2017-03-12T07:12:54.444Z,1008.67
2017-03-12T07:13:54.426Z,1008.67
2017-03-12T07:14:54.404Z,1008.68
2017-03-12T07:15:54.386Z,1008.7
2017-03-12T07:16:54.367Z,1008.67
2017-03-12T07:17:54.348Z,1008.63
2017-03-12T07:18:54.329Z,1008.62
2017-03-12T07:19:54.310Z,1008.66
2017-03-12T07:20:54.291Z,1008.65
2017-03-12T07:21:54.272Z,1008.61
2017-03-12T07:22:54.253Z,1008.65
2017-03-12T07:23:54.233Z,1008.65
2017-03-12T07:24:54.216Z,1008.65
2017-03-12T07:25:54.195Z,1008.63
2017-03-12T07:26:54.176Z,1008.68
2017-03-12T07:27:54.161Z,1008.66
2017-03-12T07:28:54.138Z,1008.66
2017-03-12T07:29:54.118Z,1008.63
2017-03-12T07:30:54.100Z,1008.65
2017-03-12T07:31:54.081Z,1008.64
2017-03-12T07:32:54.061Z,1008.64
2017-03-12T07:33:54.092Z,1008.63
2017-03-12T07:34:54.024Z,1008.63
2017-03-12T07:35:54.055Z,1008.6
2017-03-12T07:36:53.987Z,1008.58
2017-03-12T07:37:53.977Z,1008.59
2017-03-12T07:38:53.950Z,1008.6
2017-03-12T07:39:53.933Z,1008.56
2017-03-12T07:40:53.911Z,1008.6
2017-03-12T07:41:53.897Z,1008.59
2017-03-12T07:42:53.877Z,1008.62
2017-03-12T07:43:53.855Z,1008.62
2017-03-12T07:44:53.835Z,1008.66
2017-03-12T07:45:53.819Z,1008.69
2017-03-12T07:46:53.799Z,1008.7
2017-03-12T07:47:53.781Z,1008.65
2017-03-12T07:48:53.764Z,1008.67
2017-03-12T07:49:53.751Z,1008.67
2017-03-12T07:50:53.730Z,1008.68
2017-03-12T07:51:53.713Z,1008.66
2017-03-12T07:52:53.696Z,1008.7
2017-03-12T07:53:53.671Z,1008.68
2017-03-12T07:54:53.652Z,1008.67
2017-03-12T07:55:53.635Z,1008.64
2017-03-12T07:56:53.616Z,1008.68
2017-03-12T07:57:53.600Z,1008.63
2017-03-12T07:58:53.581Z,1008.64
2017-03-12T07:59:53.562Z,1008.67
2017-03-12T08:00:53.545Z,1008.62
2017-03-12T08:01:53.526Z,1008.59
2017-03-12T08:02:53.508Z,1008.62
2017-03-12T08:03:53.489Z,1008.62
2017-03-12T08:04:53.473Z,1008.65
2017-03-12T08:05:53.458Z,1008.64
2017-03-12T08:06:53.437Z,1008.66
2017-03-12T08:07:53.419Z,1008.66
2017-03-12T08:08:53.404Z,1008.67
2017-03-12T08:09:53.385Z,1008.64
2017-03-12T08:10:53.365Z,1008.59
2017-03-12T08:11:53.349Z,1008.61
2017-03-12T08:12:53.333Z,1008.64
2017-03-12T08:13:53.316Z,1008.62
2017-03-12T08:14:53.296Z,1008.62
2017-03-12T08:15:53.279Z,1008.66
2017-03-12T08:16:53.263Z,1008.65
2017-03-12T08:17:53.293Z,1008.62
2017-03-12T08:18:53.227Z,1008.64
2017-03-12T08:19:53.208Z,1008.6
2017-03-12T08:20:53.192Z,1008.63
2017-03-12T08:21:53.175Z,1008.75
2017-03-12T08:22:53.158Z,1008.81
2017-03-12T08:23:53.141Z,1008.83
2017-03-12T08:24:53.123Z,1008.8
2017-03-12T08:25:53.107Z,1008.76
2017-03-12T08:26:53.094Z,1008.78
2017-03-12T08:27:53.076Z,1008.73
2017-03-12T08:28:53.062Z,1008.79
2017-03-12T08:29:53.046Z,1008.73
2017-03-12T08:30:53.031Z,1008.73
2017-03-12T08:31:53.016Z,1008.76
2017-03-12T08:32:53.001Z,1008.79
2017-03-12T08:33:52.987Z,1008.82
2017-03-12T08:34:52.974Z,1008.82
2017-03-12T08:35:52.962Z,1008.81
2017-03-12T08:36:52.953Z,1008.81
2017-03-12T08:37:52.934Z,1008.82
2017-03-12T08:38:52.923Z,1008.86
2017-03-12T08:39:52.910Z,1008.85
2017-03-12T08:40:52.901Z,1008.84
2017-03-12T08:41:52.891Z,1008.78
2017-03-12T08:42:52.878Z,1008.81
2017-03-12T08:43:52.867Z,1008.78
2017-03-12T08:44:52.856Z,1008.77
2017-03-12T08:45:52.848Z,1008.77
2017-03-12T08:46:52.836Z,1008.67
2017-03-12T08:47:52.827Z,1008.61
2017-03-12T08:48:52.816Z,1008.65
2017-03-12T08:49:52.808Z,1008.66
2017-03-12T08:50:52.796Z,1008.66
2017-03-12T08:51:52.786Z,1008.64
2017-03-12T08:52:52.777Z,1008.63
2017-03-12T08:53:52.766Z,1008.67
2017-03-12T08:54:52.757Z,1008.69
2017-03-12T08:55:52.752Z,1008.65
2017-03-12T08:56:52.736Z,1008.64
2017-03-12T08:57:52.727Z,1008.7
2017-03-12T08:58:52.718Z,1008.69
2017-03-12T08:59:52.711Z,1008.63
2017-03-12T09:00:52.701Z,1008.62
2017-03-12T09:01:52.691Z,1008.68
2017-03-12T09:02:52.696Z,1008.68
2017-03-12T09:03:52.674Z,1008.68
2017-03-12T09:04:52.665Z,1008.71
2017-03-12T09:05:52.656Z,1008.73
2017-03-12T09:06:52.650Z,1008.67
2017-03-12T09:07:52.840Z,1008.69
2017-03-12T09:08:52.631Z,1008.69
2017-03-12T09:09:52.622Z,1008.67
2017-03-12T09:10:52.612Z,1008.66
2017-03-12T09:11:52.605Z,1008.65
2017-03-12T09:12:52.596Z,1008.71
2017-03-12T09:13:52.592Z,1008.72
2017-03-12T09:14:52.579Z,1008.68
2017-03-12T09:15:52.570Z,1008.59
2017-03-12T09:16:52.563Z,1008.62
2017-03-12T09:17:52.604Z,1008.64
2017-03-12T09:18:52.546Z,1008.6
2017-03-12T09:19:52.539Z,1008.58
2017-03-12T09:20:52.530Z,1008.6
2017-03-12T09:21:52.521Z,1008.61
2017-03-12T09:22:52.512Z,1008.65
2017-03-12T09:23:52.505Z,1008.66
2017-03-12T09:24:52.496Z,1008.7
2017-03-12T09:25:52.489Z,1008.61
2017-03-12T09:26:52.481Z,1008.66
2017-03-12T09:27:52.472Z,1008.71
2017-03-12T09:28:52.464Z,1008.71
2017-03-12T09:29:52.456Z,1008.66
2017-03-12T09:30:52.449Z,1008.7
2017-03-12T09:31:52.441Z,1008.63
2017-03-12T09:32:52.434Z,1008.65
2017-03-12T09:33:52.426Z,1008.61
2017-03-12T09:34:52.419Z,1008.64
2017-03-12T09:35:52.413Z,1008.57
2017-03-12T09:36:52.409Z,1008.58
2017-03-12T09:37:52.397Z,1008.6
2017-03-12T09:38:52.392Z,1008.54
2017-03-12T09:39:52.383Z,1008.59
2017-03-12T09:40:52.376Z,1008.55
2017-03-12T09:41:52.368Z,1008.54
2017-03-12T09:42:52.362Z,1008.53
2017-03-12T09:43:52.353Z,1008.53
2017-03-12T09:44:52.346Z,1008.52
2017-03-12T09:45:52.338Z,1008.51
2017-03-12T09:46:52.329Z,1008.51
2017-03-12T09:47:52.322Z,1008.54
2017-03-12T09:48:52.314Z,1008.52
2017-03-12T09:49:52.306Z,1008.54
2017-03-12T09:50:52.302Z,1008.5
2017-03-12T09:51:52.290Z,1008.53
2017-03-12T09:52:52.283Z,1008.54
2017-03-12T09:53:52.276Z,1008.5
2017-03-12T09:54:52.267Z,1008.48
2017-03-12T09:55:52.262Z,1008.5
2017-03-12T09:56:52.253Z,1008.47
2017-03-12T09:57:52.245Z,1008.44
2017-03-12T09:58:52.239Z,1008.43
2017-03-12T09:59:52.237Z,1008.42
2017-03-12T10:00:52.225Z,1008.45
2017-03-12T10:01:52.217Z,1008.5
2017-03-12T10:02:52.206Z,1008.5
2017-03-12T10:03:52.199Z,1008.52
2017-03-12T10:04:52.191Z,1008.51
2017-03-12T10:05:52.182Z,1008.47
2017-03-12T10:06:52.176Z,1008.5
2017-03-12T10:07:52.169Z,1008.48
2017-03-12T10:08:52.168Z,1008.48
2017-03-12T10:09:52.155Z,1008.45
2017-03-12T10:10:52.145Z,1008.48
2017-03-12T10:11:52.141Z,1008.44
2017-03-12T10:12:52.166Z,1008.44
2017-03-12T10:13:52.130Z,1008.44
2017-03-12T10:14:52.120Z,1008.41
2017-03-12T10:15:52.118Z,1008.38
2017-03-12T10:16:52.141Z,1008.38
2017-03-12T10:17:52.097Z,1008.39
2017-03-12T10:18:52.091Z,1008.39
2017-03-12T10:19:52.087Z,1008.39
2017-03-12T10:20:52.077Z,1008.39
2017-03-12T10:21:52.072Z,1008.38
2017-03-12T10:22:52.064Z,1008.38
2017-03-12T10:23:52.059Z,1008.42
2017-03-12T10:24:52.051Z,1008.4
2017-03-12T10:25:52.043Z,1008.41
2017-03-12T10:26:52.038Z,1008.42
2017-03-12T10:27:52.031Z,1008.31
2017-03-12T10:28:52.023Z,1008.37
2017-03-12T10:29:52.023Z,1008.38
2017-03-12T10:30:52.013Z,1008.32
2017-03-12T10:31:52.004Z,1008.38
2017-03-12T10:32:52.001Z,1008.33
2017-03-12T10:33:51.994Z,1008.37
2017-03-12T10:34:51.989Z,1008.32
2017-03-12T10:35:51.981Z,1008.34
2017-03-12T10:36:52.000Z,1008.35
2017-03-12T10:37:51.987Z,1008.31
2017-03-12T10:38:51.966Z,1008.33
2017-03-12T10:39:51.958Z,1008.33
2017-03-12T10:40:51.954Z,1008.35
2017-03-12T10:41:51.951Z,1008.35
2017-03-12T10:42:51.945Z,1008.29
2017-03-12T10:43:51.990Z,1008.33
2017-03-12T10:44:51.986Z,1008.33
2017-03-12T10:45:51.932Z,1008.31
2017-03-12T10:46:51.924Z,1008.31
2017-03-12T10:47:51.919Z,1008.29
2017-03-12T10:48:51.916Z,1008.19
2017-03-12T10:49:51.911Z,1008.26
2017-03-12T10:50:51.905Z,1008.26
2017-03-12T10:51:51.901Z,1008.24
2017-03-12T10:52:51.895Z,1008.23
2017-03-12T10:53:51.891Z,1008.28
2017-03-12T10:54:51.887Z,1008.27
2017-03-12T10:55:51.882Z,1008.26
2017-03-12T10:56:51.877Z,1008.27
2017-03-12T10:57:51.873Z,1008.27
2017-03-12T10:58:51.868Z,1008.25
2017-03-12T10:59:51.864Z,1008.32
2017-03-12T11:00:51.860Z,1008.31
2017-03-12T11:01:51.855Z,1008.3
2017-03-12T11:02:51.852Z,1008.31
2017-03-12T11:03:51.848Z,1008.27
2017-03-12T11:04:51.845Z,1008.28
2017-03-12T11:05:51.840Z,1008.26
2017-03-12T11:06:51.839Z,1008.22
2017-03-12T11:07:51.834Z,1008.22
2017-03-12T11:08:51.830Z,1008.26
2017-03-12T11:09:51.829Z,1008.23
2017-03-12T11:10:51.826Z,1008.23
2017-03-12T11:11:51.823Z,1008.23
2017-03-12T11:12:51.820Z,1008.23
2017-03-12T11:13:51.817Z,1008.18
2017-03-12T11:14:51.814Z,1008.12
2017-03-12T11:15:51.812Z,1008.12
2017-03-12T11:16:51.808Z,1008.13
2017-03-12T11:17:51.805Z,1008.1
2017-03-12T11:18:51.804Z,1008.1
2017-03-12T11:19:51.798Z,1008.1
2017-03-12T11:20:51.795Z,1008.09
2017-03-12T11:21:51.792Z,1008.12
2017-03-12T11:22:51.789Z,1008.1
2017-03-12T11:23:51.788Z,1008.12
2017-03-12T11:24:51.783Z,1008.07
2017-03-12T11:25:51.782Z,1008.13
2017-03-12T11:26:51.778Z,1008.13
2017-03-12T11:27:51.775Z,1008.11
2017-03-12T11:28:51.775Z,1008.13
2017-03-12T11:29:51.770Z,1008.1
2017-03-12T11:30:51.768Z,1008.08
2017-03-12T11:31:51.765Z,1008.07
2017-03-12T11:32:51.765Z,1008.02
2017-03-12T11:33:51.762Z,1007.98
2017-03-12T11:34:51.762Z,1008.03
2017-03-12T11:35:51.761Z,1007.98
2017-03-12T11:36:51.760Z,1007.94
2017-03-12T11:37:51.763Z,1007.97
2017-03-12T11:38:51.755Z,1007.92
2017-03-12T11:39:51.752Z,1007.92
2017-03-12T11:40:51.749Z,1007.92
2017-03-12T11:41:51.747Z,1007.89
2017-03-12T11:42:51.744Z,1007.88
2017-03-12T11:43:51.744Z,1007.88
2017-03-12T11:44:51.742Z,1007.83
2017-03-12T11:45:51.742Z,1007.86
2017-03-12T11:46:51.738Z,1007.85
2017-03-12T11:47:51.737Z,1007.82
2017-03-12T11:48:51.733Z,1007.84
2017-03-12T11:49:51.731Z,1007.8
2017-03-12T11:50:51.730Z,1007.8
2017-03-12T11:51:51.730Z,1007.85
2017-03-12T11:52:51.728Z,1007.81
2017-03-12T11:53:51.728Z,1007.83
2017-03-12T11:54:51.732Z,1007.84
2017-03-12T11:55:51.724Z,1007.75
2017-03-12T11:56:51.799Z,1007.75
2017-03-12T11:57:51.726Z,1007.78
2017-03-12T11:58:51.729Z,1007.79
2017-03-12T11:59:51.726Z,1007.78
2017-03-12T12:00:51.724Z,1007.77
2017-03-12T12:01:51.724Z,1007.72
2017-03-12T12:02:51.728Z,1007.75
2017-03-12T12:03:51.724Z,1007.71
2017-03-12T12:04:51.728Z,1007.72
2017-03-12T12:05:51.737Z,1007.69
2017-03-12T12:06:51.726Z,1007.63
2017-03-12T12:07:51.726Z,1007.69